sensor_id;sensor_type;location;lat;lon;timestamp;P1;durP1;ratioP1;P2;durP2;ratioP2
54191;SDS011;40101;53.002;6.488;2022-12-29T00:00:49;4.90;;;4.00;;
54191;SDS011;40101;53.002;6.488;2022-12-29T00:03:16;5.05;;;4.57;;
54191;SDS011;40101;53.002;6.488;2022-12-29T00:05:42;4.97;;;4.53;;
54191;SDS011;40101;53.002;6.488;2022-12-29T00:08:08;6.47;;;4.93;;
54191;SDS011;40101;53.002;6.488;2022-12-29T00:10:35;4.78;;;4.38;;
54191;SDS011;40101;53.002;6.488;2022-12-29T00:13:01;6.53;;;5.18;;
54191;SDS011;40101;53.002;6.488;2022-12-29T00:15:48;5.22;;;4.72;;
54191;SDS011;40101;53.002;6.488;2022-12-29T00:18:15;5.75;;;4.97;;
54191;SDS011;40101;53.002;6.488;2022-12-29T00:20:41;6.53;;;5.85;;
54191;SDS011;40101;53.002;6.488;2022-12-29T00:23:25;5.72;;;5.22;;
54191;SDS011;40101;53.002;6.488;2022-12-29T00:26:17;6.97;;;6.28;;
54191;SDS011;40101;53.002;6.488;2022-12-29T00:29:02;6.10;;;5.50;;
54191;SDS011;40101;53.002;6.488;2022-12-29T00:31:46;5.80;;;5.07;;
54191;SDS011;40101;53.002;6.488;2022-12-29T00:34:31;9.25;;;5.68;;
54191;SDS011;40101;53.002;6.488;2022-12-29T00:37:16;7.05;;;5.85;;
54191;SDS011;40101;53.002;6.488;2022-12-29T00:39:42;6.15;;;5.43;;
54191;SDS011;40101;53.002;6.488;2022-12-29T00:42:26;5.97;;;5.47;;
54191;SDS011;40101;53.002;6.488;2022-12-29T00:45:10;5.93;;;5.10;;
54191;SDS011;40101;53.002;6.488;2022-12-29T00:47:36;8.57;;;5.20;;
54191;SDS011;40101;53.002;6.488;2022-12-29T00:50:02;6.07;;;4.68;;
54191;SDS011;40101;53.002;6.488;2022-12-29T00:52:28;5.50;;;4.57;;
54191;SDS011;40101;53.002;6.488;2022-12-29T00:54:54;5.53;;;5.00;;
54191;SDS011;40101;53.002;6.488;2022-12-29T00:57:20;9.70;;;5.25;;
54191;SDS011;40101;53.002;6.488;2022-12-29T00:59:46;4.70;;;4.05;;
54191;SDS011;40101;53.002;6.488;2022-12-29T01:02:11;6.63;;;4.90;;
54191;SDS011;40101;53.002;6.488;2022-12-29T01:04:37;4.60;;;4.20;;
54191;SDS011;40101;53.002;6.488;2022-12-29T01:07:03;4.63;;;4.00;;
54191;SDS011;40101;53.002;6.488;2022-12-29T01:09:29;4.90;;;4.05;;
54191;SDS011;40101;53.002;6.488;2022-12-29T01:12:14;4.97;;;4.38;;
54191;SDS011;40101;53.002;6.488;2022-12-29T01:14:40;5.15;;;3.92;;
54191;SDS011;40101;53.002;6.488;2022-12-29T01:17:05;4.53;;;4.13;;
54191;SDS011;40101;53.002;6.488;2022-12-29T01:19:31;6.47;;;4.55;;
54191;SDS011;40101;53.002;6.488;2022-12-29T01:21:57;5.10;;;3.92;;
54191;SDS011;40101;53.002;6.488;2022-12-29T01:24:23;5.95;;;4.22;;
54191;SDS011;40101;53.002;6.488;2022-12-29T01:26:50;4.07;;;3.67;;
54191;SDS011;40101;53.002;6.488;2022-12-29T01:29:16;5.32;;;4.45;;
54191;SDS011;40101;53.002;6.488;2022-12-29T01:31:42;4.47;;;3.60;;
54191;SDS011;40101;53.002;6.488;2022-12-29T01:34:08;6.75;;;4.28;;
54191;SDS011;40101;53.002;6.488;2022-12-29T01:36:34;5.82;;;3.60;;
54191;SDS011;40101;53.002;6.488;2022-12-29T01:38:59;3.58;;;3.03;;
54191;SDS011;40101;53.002;6.488;2022-12-29T01:41:25;4.90;;;3.40;;
54191;SDS011;40101;53.002;6.488;2022-12-29T01:43:52;3.92;;;3.38;;
54191;SDS011;40101;53.002;6.488;2022-12-29T01:46:38;3.63;;;3.05;;
54191;SDS011;40101;53.002;6.488;2022-12-29T01:51:46;3.30;;;3.00;;
54191;SDS011;40101;53.002;6.488;2022-12-29T01:54:19;3.47;;;2.65;;
54191;SDS011;40101;53.002;6.488;2022-12-29T01:56:49;3.35;;;3.05;;
54191;SDS011;40101;53.002;6.488;2022-12-29T01:59:18;6.75;;;3.63;;
54191;SDS011;40101;53.002;6.488;2022-12-29T02:01:46;5.55;;;2.85;;
54191;SDS011;40101;53.002;6.488;2022-12-29T02:04:12;5.65;;;3.25;;
54191;SDS011;40101;53.002;6.488;2022-12-29T02:06:43;5.15;;;2.75;;
54191;SDS011;40101;53.002;6.488;2022-12-29T02:09:16;4.78;;;2.97;;
54191;SDS011;40101;53.002;6.488;2022-12-29T02:11:42;3.25;;;2.70;;
54191;SDS011;40101;53.002;6.488;2022-12-29T02:14:09;5.68;;;2.70;;
54191;SDS011;40101;53.002;6.488;2022-12-29T02:21:57;3.95;;;2.58;;
54191;SDS011;40101;53.002;6.488;2022-12-29T02:27:39;3.55;;;2.83;;
54191;SDS011;40101;53.002;6.488;2022-12-29T02:30:28;3.95;;;2.17;;
54191;SDS011;40101;53.002;6.488;2022-12-29T02:33:21;4.40;;;2.90;;
54191;SDS011;40101;53.002;6.488;2022-12-29T02:41:19;3.13;;;2.35;;
54191;SDS011;40101;53.002;6.488;2022-12-29T02:43:52;4.97;;;2.60;;
54191;SDS011;40101;53.002;6.488;2022-12-29T02:54:27;4.63;;;2.17;;
54191;SDS011;40101;53.002;6.488;2022-12-29T02:57:31;4.80;;;2.85;;
54191;SDS011;40101;53.002;6.488;2022-12-29T03:00:09;4.15;;;2.53;;
54191;SDS011;40101;53.002;6.488;2022-12-29T03:05:28;4.57;;;2.63;;
54191;SDS011;40101;53.002;6.488;2022-12-29T03:13:49;1.90;;;1.50;;
54191;SDS011;40101;53.002;6.488;2022-12-29T03:22:10;1.70;;;1.30;;
54191;SDS011;40101;53.002;6.488;2022-12-29T03:25:00;2.55;;;1.80;;
54191;SDS011;40101;53.002;6.488;2022-12-29T03:27:50;2.85;;;1.52;;
54191;SDS011;40101;53.002;6.488;2022-12-29T03:30:42;5.60;;;2.10;;
54191;SDS011;40101;53.002;6.488;2022-12-29T03:33:10;2.25;;;1.38;;
54191;SDS011;40101;53.002;6.488;2022-12-29T03:35:40;1.67;;;1.23;;
54191;SDS011;40101;53.002;6.488;2022-12-29T03:40:51;2.17;;;1.70;;
54191;SDS011;40101;53.002;6.488;2022-12-29T03:43:20;3.78;;;1.70;;
54191;SDS011;40101;53.002;6.488;2022-12-29T03:45:47;3.28;;;1.33;;
54191;SDS011;40101;53.002;6.488;2022-12-29T03:48:13;2.53;;;1.90;;
54191;SDS011;40101;53.002;6.488;2022-12-29T03:50:39;5.70;;;1.50;;
54191;SDS011;40101;53.002;6.488;2022-12-29T03:53:04;3.20;;;1.52;;
54191;SDS011;40101;53.002;6.488;2022-12-29T03:55:30;5.03;;;1.58;;
54191;SDS011;40101;53.002;6.488;2022-12-29T03:57:57;3.65;;;1.73;;
54191;SDS011;40101;53.002;6.488;2022-12-29T04:00:23;5.22;;;1.42;;
54191;SDS011;40101;53.002;6.488;2022-12-29T04:02:48;2.72;;;1.67;;
54191;SDS011;40101;53.002;6.488;2022-12-29T04:05:14;3.22;;;1.40;;
54191;SDS011;40101;53.002;6.488;2022-12-29T04:07:40;2.80;;;1.40;;
54191;SDS011;40101;53.002;6.488;2022-12-29T04:10:06;4.45;;;1.75;;
54191;SDS011;40101;53.002;6.488;2022-12-29T04:12:32;2.53;;;1.27;;
54191;SDS011;40101;53.002;6.488;2022-12-29T04:14:58;3.08;;;1.00;;
54191;SDS011;40101;53.002;6.488;2022-12-29T04:17:24;2.30;;;1.13;;
54191;SDS011;40101;53.002;6.488;2022-12-29T04:19:50;3.50;;;1.40;;
54191;SDS011;40101;53.002;6.488;2022-12-29T04:22:16;8.77;;;2.67;;
54191;SDS011;40101;53.002;6.488;2022-12-29T04:24:42;3.85;;;1.35;;
54191;SDS011;40101;53.002;6.488;2022-12-29T04:27:07;7.97;;;1.90;;
54191;SDS011;40101;53.002;6.488;2022-12-29T04:29:33;3.95;;;1.30;;
54191;SDS011;40101;53.002;6.488;2022-12-29T04:31:59;3.58;;;0.98;;
54191;SDS011;40101;53.002;6.488;2022-12-29T04:34:24;3.20;;;1.02;;
54191;SDS011;40101;53.002;6.488;2022-12-29T04:36:50;4.82;;;1.20;;
54191;SDS011;40101;53.002;6.488;2022-12-29T04:39:16;3.50;;;0.90;;
54191;SDS011;40101;53.002;6.488;2022-12-29T04:41:41;2.05;;;0.90;;
54191;SDS011;40101;53.002;6.488;2022-12-29T04:44:07;3.08;;;0.80;;
54191;SDS011;40101;53.002;6.488;2022-12-29T04:46:33;4.13;;;0.80;;
54191;SDS011;40101;53.002;6.488;2022-12-29T04:48:58;4.30;;;1.48;;
54191;SDS011;40101;53.002;6.488;2022-12-29T04:51:29;1.92;;;0.82;;
54191;SDS011;40101;53.002;6.488;2022-12-29T04:53:55;4.47;;;0.80;;
54191;SDS011;40101;53.002;6.488;2022-12-29T04:56:20;3.45;;;1.02;;
54191;SDS011;40101;53.002;6.488;2022-12-29T04:58:46;5.53;;;1.63;;
54191;SDS011;40101;53.002;6.488;2022-12-29T05:01:12;4.53;;;1.63;;
54191;SDS011;40101;53.002;6.488;2022-12-29T05:03:38;3.72;;;1.13;;
54191;SDS011;40101;53.002;6.488;2022-12-29T05:06:03;6.18;;;1.27;;
54191;SDS011;40101;53.002;6.488;2022-12-29T05:08:31;4.35;;;1.65;;
54191;SDS011;40101;53.002;6.488;2022-12-29T05:10:57;5.38;;;1.20;;
54191;SDS011;40101;53.002;6.488;2022-12-29T05:13:23;5.93;;;2.17;;
54191;SDS011;40101;53.002;6.488;2022-12-29T05:15:52;5.45;;;1.83;;
54191;SDS011;40101;53.002;6.488;2022-12-29T05:18:18;9.05;;;1.35;;
54191;SDS011;40101;53.002;6.488;2022-12-29T05:20:45;7.97;;;1.75;;
54191;SDS011;40101;53.002;6.488;2022-12-29T05:23:12;12.27;;;2.10;;
54191;SDS011;40101;53.002;6.488;2022-12-29T05:25:38;5.63;;;1.45;;
54191;SDS011;40101;53.002;6.488;2022-12-29T05:28:04;11.27;;;2.17;;
54191;SDS011;40101;53.002;6.488;2022-12-29T05:30:29;10.27;;;1.90;;
54191;SDS011;40101;53.002;6.488;2022-12-29T05:32:55;8.93;;;1.80;;
54191;SDS011;40101;53.002;6.488;2022-12-29T05:35:21;8.88;;;1.50;;
54191;SDS011;40101;53.002;6.488;2022-12-29T05:37:46;8.95;;;2.50;;
54191;SDS011;40101;53.002;6.488;2022-12-29T05:40:12;11.57;;;3.17;;
54191;SDS011;40101;53.002;6.488;2022-12-29T05:42:37;7.75;;;1.85;;
54191;SDS011;40101;53.002;6.488;2022-12-29T05:45:03;8.27;;;2.20;;
54191;SDS011;40101;53.002;6.488;2022-12-29T05:47:32;9.60;;;2.13;;
54191;SDS011;40101;53.002;6.488;2022-12-29T05:49:57;8.02;;;2.10;;
54191;SDS011;40101;53.002;6.488;2022-12-29T05:52:23;5.85;;;1.42;;
54191;SDS011;40101;53.002;6.488;2022-12-29T05:54:49;6.85;;;1.90;;
54191;SDS011;40101;53.002;6.488;2022-12-29T05:57:14;7.45;;;1.73;;
54191;SDS011;40101;53.002;6.488;2022-12-29T05:59:40;9.48;;;1.50;;
54191;SDS011;40101;53.002;6.488;2022-12-29T06:02:05;5.85;;;2.15;;
54191;SDS011;40101;53.002;6.488;2022-12-29T06:04:31;11.60;;;2.25;;
54191;SDS011;40101;53.002;6.488;2022-12-29T06:06:57;11.68;;;2.45;;
54191;SDS011;40101;53.002;6.488;2022-12-29T06:09:22;6.85;;;1.45;;
54191;SDS011;40101;53.002;6.488;2022-12-29T06:11:48;2.08;;;1.00;;
54191;SDS011;40101;53.002;6.488;2022-12-29T06:14:13;6.05;;;1.45;;
54191;SDS011;40101;53.002;6.488;2022-12-29T06:16:39;8.73;;;1.40;;
54191;SDS011;40101;53.002;6.488;2022-12-29T06:19:05;8.13;;;1.42;;
54191;SDS011;40101;53.002;6.488;2022-12-29T06:21:30;8.73;;;1.60;;
54191;SDS011;40101;53.002;6.488;2022-12-29T06:23:56;11.63;;;1.50;;
54191;SDS011;40101;53.002;6.488;2022-12-29T06:26:22;6.80;;;1.70;;
54191;SDS011;40101;53.002;6.488;2022-12-29T06:28:47;8.38;;;1.58;;
54191;SDS011;40101;53.002;6.488;2022-12-29T06:31:13;13.98;;;3.05;;
54191;SDS011;40101;53.002;6.488;2022-12-29T06:33:38;10.57;;;2.17;;
54191;SDS011;40101;53.002;6.488;2022-12-29T06:36:04;8.90;;;1.75;;
54191;SDS011;40101;53.002;6.488;2022-12-29T06:38:30;10.63;;;1.83;;
54191;SDS011;40101;53.002;6.488;2022-12-29T06:40:56;12.13;;;1.70;;
54191;SDS011;40101;53.002;6.488;2022-12-29T06:43:21;14.25;;;1.92;;
54191;SDS011;40101;53.002;6.488;2022-12-29T06:45:47;13.10;;;2.60;;
54191;SDS011;40101;53.002;6.488;2022-12-29T06:48:13;15.18;;;2.78;;
54191;SDS011;40101;53.002;6.488;2022-12-29T06:50:38;16.00;;;2.55;;
54191;SDS011;40101;53.002;6.488;2022-12-29T06:53:04;12.95;;;2.42;;
54191;SDS011;40101;53.002;6.488;2022-12-29T06:55:30;10.57;;;2.75;;
54191;SDS011;40101;53.002;6.488;2022-12-29T06:57:56;14.15;;;2.08;;
54191;SDS011;40101;53.002;6.488;2022-12-29T07:00:24;12.98;;;3.53;;
54191;SDS011;40101;53.002;6.488;2022-12-29T07:02:50;8.65;;;2.63;;
54191;SDS011;40101;53.002;6.488;2022-12-29T07:05:16;9.70;;;2.53;;
54191;SDS011;40101;53.002;6.488;2022-12-29T07:07:41;13.40;;;2.72;;
54191;SDS011;40101;53.002;6.488;2022-12-29T07:10:07;12.95;;;2.97;;
54191;SDS011;40101;53.002;6.488;2022-12-29T07:12:33;11.52;;;2.45;;
54191;SDS011;40101;53.002;6.488;2022-12-29T07:14:59;15.75;;;3.55;;
54191;SDS011;40101;53.002;6.488;2022-12-29T07:17:24;6.97;;;1.90;;
54191;SDS011;40101;53.002;6.488;2022-12-29T07:19:50;15.00;;;3.10;;
54191;SDS011;40101;53.002;6.488;2022-12-29T07:22:16;14.35;;;1.98;;
54191;SDS011;40101;53.002;6.488;2022-12-29T07:24:42;14.70;;;2.53;;
54191;SDS011;40101;53.002;6.488;2022-12-29T07:27:08;9.20;;;2.80;;
54191;SDS011;40101;53.002;6.488;2022-12-29T07:29:36;10.15;;;2.60;;
54191;SDS011;40101;53.002;6.488;2022-12-29T07:32:02;13.70;;;3.08;;
54191;SDS011;40101;53.002;6.488;2022-12-29T07:34:27;13.35;;;2.67;;
54191;SDS011;40101;53.002;6.488;2022-12-29T07:36:53;9.88;;;2.85;;
54191;SDS011;40101;53.002;6.488;2022-12-29T07:39:19;17.42;;;3.75;;
54191;SDS011;40101;53.002;6.488;2022-12-29T07:41:44;19.55;;;2.88;;
54191;SDS011;40101;53.002;6.488;2022-12-29T07:44:10;11.70;;;2.20;;
54191;SDS011;40101;53.002;6.488;2022-12-29T07:46:36;13.50;;;2.58;;
54191;SDS011;40101;53.002;6.488;2022-12-29T07:49:02;13.85;;;2.67;;
54191;SDS011;40101;53.002;6.488;2022-12-29T07:51:27;11.40;;;2.80;;
54191;SDS011;40101;53.002;6.488;2022-12-29T07:53:53;9.68;;;1.80;;
54191;SDS011;40101;53.002;6.488;2022-12-29T07:56:18;13.85;;;3.03;;
54191;SDS011;40101;53.002;6.488;2022-12-29T07:58:44;10.13;;;2.38;;
54191;SDS011;40101;53.002;6.488;2022-12-29T08:01:10;15.40;;;4.13;;
54191;SDS011;40101;53.002;6.488;2022-12-29T08:03:35;10.82;;;2.80;;
54191;SDS011;40101;53.002;6.488;2022-12-29T08:06:01;9.43;;;2.55;;
54191;SDS011;40101;53.002;6.488;2022-12-29T08:08:27;10.70;;;2.50;;
54191;SDS011;40101;53.002;6.488;2022-12-29T08:10:53;11.30;;;2.85;;
54191;SDS011;40101;53.002;6.488;2022-12-29T08:13:19;12.95;;;2.65;;
54191;SDS011;40101;53.002;6.488;2022-12-29T08:15:45;15.88;;;3.25;;
54191;SDS011;40101;53.002;6.488;2022-12-29T08:18:10;14.57;;;2.92;;
54191;SDS011;40101;53.002;6.488;2022-12-29T08:20:36;11.20;;;2.42;;
54191;SDS011;40101;53.002;6.488;2022-12-29T08:23:02;11.82;;;2.67;;
54191;SDS011;40101;53.002;6.488;2022-12-29T08:25:28;12.77;;;2.83;;
54191;SDS011;40101;53.002;6.488;2022-12-29T08:27:53;17.15;;;3.05;;
54191;SDS011;40101;53.002;6.488;2022-12-29T08:30:19;15.00;;;2.67;;
54191;SDS011;40101;53.002;6.488;2022-12-29T08:32:44;15.10;;;3.72;;
54191;SDS011;40101;53.002;6.488;2022-12-29T08:35:10;15.25;;;4.78;;
54191;SDS011;40101;53.002;6.488;2022-12-29T08:37:37;15.82;;;3.47;;
54191;SDS011;40101;53.002;6.488;2022-12-29T08:40:03;17.17;;;3.42;;
54191;SDS011;40101;53.002;6.488;2022-12-29T08:42:31;23.40;;;3.67;;
54191;SDS011;40101;53.002;6.488;2022-12-29T08:44:58;13.15;;;2.90;;
54191;SDS011;40101;53.002;6.488;2022-12-29T08:47:24;12.68;;;3.40;;
54191;SDS011;40101;53.002;6.488;2022-12-29T08:49:51;21.33;;;3.97;;
54191;SDS011;40101;53.002;6.488;2022-12-29T08:52:17;16.50;;;3.33;;
54191;SDS011;40101;53.002;6.488;2022-12-29T08:54:43;18.58;;;4.45;;
54191;SDS011;40101;53.002;6.488;2022-12-29T08:57:09;18.20;;;4.30;;
54191;SDS011;40101;53.002;6.488;2022-12-29T08:59:34;11.93;;;2.58;;
54191;SDS011;40101;53.002;6.488;2022-12-29T09:02:01;14.48;;;3.35;;
54191;SDS011;40101;53.002;6.488;2022-12-29T09:04:27;22.67;;;3.85;;
54191;SDS011;40101;53.002;6.488;2022-12-29T09:06:54;12.55;;;3.42;;
54191;SDS011;40101;53.002;6.488;2022-12-29T09:09:20;8.25;;;1.98;;
54191;SDS011;40101;53.002;6.488;2022-12-29T09:11:45;14.90;;;2.97;;
54191;SDS011;40101;53.002;6.488;2022-12-29T09:14:11;16.90;;;3.55;;
54191;SDS011;40101;53.002;6.488;2022-12-29T09:16:37;9.85;;;2.60;;
54191;SDS011;40101;53.002;6.488;2022-12-29T09:19:03;15.10;;;3.35;;
54191;SDS011;40101;53.002;6.488;2022-12-29T09:21:29;12.95;;;2.47;;
54191;SDS011;40101;53.002;6.488;2022-12-29T09:23:55;16.13;;;4.05;;
54191;SDS011;40101;53.002;6.488;2022-12-29T09:26:21;13.50;;;3.03;;
54191;SDS011;40101;53.002;6.488;2022-12-29T09:28:46;13.65;;;2.67;;
54191;SDS011;40101;53.002;6.488;2022-12-29T09:31:13;14.18;;;4.35;;
54191;SDS011;40101;53.002;6.488;2022-12-29T09:33:39;12.23;;;3.08;;
54191;SDS011;40101;53.002;6.488;2022-12-29T09:36:05;13.27;;;2.25;;
54191;SDS011;40101;53.002;6.488;2022-12-29T09:38:31;16.15;;;3.03;;
54191;SDS011;40101;53.002;6.488;2022-12-29T09:40:59;19.23;;;4.10;;
54191;SDS011;40101;53.002;6.488;2022-12-29T09:46:26;15.32;;;2.78;;
54191;SDS011;40101;53.002;6.488;2022-12-29T09:49:00;11.80;;;2.65;;
54191;SDS011;40101;53.002;6.488;2022-12-29T09:51:44;20.42;;;3.53;;
54191;SDS011;40101;53.002;6.488;2022-12-29T09:57:05;14.55;;;3.63;;
54191;SDS011;40101;53.002;6.488;2022-12-29T09:59:48;13.07;;;3.05;;
54191;SDS011;40101;53.002;6.488;2022-12-29T10:02:29;15.25;;;3.42;;
54191;SDS011;40101;53.002;6.488;2022-12-29T10:05:12;13.73;;;3.28;;
54191;SDS011;40101;53.002;6.488;2022-12-29T10:07:45;14.95;;;2.55;;
54191;SDS011;40101;53.002;6.488;2022-12-29T10:13:57;14.07;;;2.85;;
54191;SDS011;40101;53.002;6.488;2022-12-29T10:16:18;9.05;;;2.17;;
54191;SDS011;40101;53.002;6.488;2022-12-29T10:18:58;13.70;;;2.78;;
54191;SDS011;40101;53.002;6.488;2022-12-29T10:21:43;10.90;;;2.60;;
54191;SDS011;40101;53.002;6.488;2022-12-29T10:24:11;12.95;;;3.72;;
54191;SDS011;40101;53.002;6.488;2022-12-29T10:26:39;12.55;;;2.50;;
54191;SDS011;40101;53.002;6.488;2022-12-29T10:29:17;10.48;;;2.50;;
54191;SDS011;40101;53.002;6.488;2022-12-29T10:31:56;13.38;;;3.17;;
54191;SDS011;40101;53.002;6.488;2022-12-29T10:34:26;12.18;;;3.38;;
54191;SDS011;40101;53.002;6.488;2022-12-29T10:36:59;11.60;;;2.35;;
54191;SDS011;40101;53.002;6.488;2022-12-29T10:39:42;12.15;;;2.53;;
54191;SDS011;40101;53.002;6.488;2022-12-29T10:42:27;15.77;;;3.33;;
54191;SDS011;40101;53.002;6.488;2022-12-29T10:44:56;16.48;;;2.70;;
54191;SDS011;40101;53.002;6.488;2022-12-29T10:47:28;13.00;;;2.50;;
54191;SDS011;40101;53.002;6.488;2022-12-29T10:49:58;11.85;;;2.10;;
54191;SDS011;40101;53.002;6.488;2022-12-29T10:52:26;13.85;;;3.05;;
54191;SDS011;40101;53.002;6.488;2022-12-29T11:00:00;11.88;;;2.50;;
54191;SDS011;40101;53.002;6.488;2022-12-29T11:07:47;12.25;;;2.42;;
54191;SDS011;40101;53.002;6.488;2022-12-29T11:10:18;16.08;;;2.75;;
54191;SDS011;40101;53.002;6.488;2022-12-29T11:12:55;13.27;;;2.78;;
54191;SDS011;40101;53.002;6.488;2022-12-29T11:15:22;11.53;;;2.60;;
54191;SDS011;40101;53.002;6.488;2022-12-29T11:20:35;13.20;;;2.67;;
54191;SDS011;40101;53.002;6.488;2022-12-29T11:23:04;15.75;;;2.72;;
54191;SDS011;40101;53.002;6.488;2022-12-29T11:25:45;14.30;;;3.03;;
54191;SDS011;40101;53.002;6.488;2022-12-29T11:28:15;20.10;;;4.45;;
54191;SDS011;40101;53.002;6.488;2022-12-29T11:30:41;11.35;;;2.40;;
54191;SDS011;40101;53.002;6.488;2022-12-29T11:33:08;13.32;;;3.08;;
54191;SDS011;40101;53.002;6.488;2022-12-29T11:35:41;21.88;;;4.95;;
54191;SDS011;40101;53.002;6.488;2022-12-29T11:38:21;16.58;;;4.45;;
54191;SDS011;40101;53.002;6.488;2022-12-29T11:40:51;26.55;;;5.38;;
54191;SDS011;40101;53.002;6.488;2022-12-29T11:43:38;22.08;;;5.13;;
54191;SDS011;40101;53.002;6.488;2022-12-29T11:46:04;22.67;;;4.78;;
54191;SDS011;40101;53.002;6.488;2022-12-29T11:48:40;18.85;;;3.63;;
54191;SDS011;40101;53.002;6.488;2022-12-29T11:51:07;23.33;;;7.63;;
54191;SDS011;40101;53.002;6.488;2022-12-29T11:53:39;17.63;;;3.65;;
54191;SDS011;40101;53.002;6.488;2022-12-29T11:56:16;21.63;;;4.35;;
54191;SDS011;40101;53.002;6.488;2022-12-29T11:58:45;21.02;;;5.35;;
54191;SDS011;40101;53.002;6.488;2022-12-29T12:01:19;21.05;;;4.43;;
54191;SDS011;40101;53.002;6.488;2022-12-29T12:04:03;20.52;;;4.07;;
54191;SDS011;40101;53.002;6.488;2022-12-29T12:06:33;28.15;;;4.53;;
54191;SDS011;40101;53.002;6.488;2022-12-29T12:09:10;22.27;;;4.65;;
54191;SDS011;40101;53.002;6.488;2022-12-29T12:11:43;20.08;;;3.53;;
54191;SDS011;40101;53.002;6.488;2022-12-29T12:14:15;19.02;;;5.20;;
54191;SDS011;40101;53.002;6.488;2022-12-29T12:17:09;26.50;;;4.68;;
54191;SDS011;40101;53.002;6.488;2022-12-29T12:25:12;20.20;;;4.75;;
54191;SDS011;40101;53.002;6.488;2022-12-29T12:28:00;20.73;;;4.63;;
54191;SDS011;40101;53.002;6.488;2022-12-29T12:30:47;20.25;;;4.95;;
54191;SDS011;40101;53.002;6.488;2022-12-29T12:43:40;17.55;;;2.88;;
54191;SDS011;40101;53.002;6.488;2022-12-29T13:13:01;14.93;;;3.15;;
54191;SDS011;40101;53.002;6.488;2022-12-29T13:15:49;17.38;;;2.30;;
54191;SDS011;40101;53.002;6.488;2022-12-29T13:18:31;19.57;;;4.00;;
54191;SDS011;40101;53.002;6.488;2022-12-29T13:23:51;14.52;;;3.33;;
54191;SDS011;40101;53.002;6.488;2022-12-29T13:26:47;16.70;;;4.30;;
54191;SDS011;40101;53.002;6.488;2022-12-29T13:32:25;10.20;;;2.60;;
54191;SDS011;40101;53.002;6.488;2022-12-29T13:40:38;13.93;;;3.53;;
54191;SDS011;40101;53.002;6.488;2022-12-29T13:43:08;13.02;;;3.38;;
54191;SDS011;40101;53.002;6.488;2022-12-29T13:45:34;17.10;;;2.92;;
54191;SDS011;40101;53.002;6.488;2022-12-29T13:48:02;12.32;;;2.90;;
54191;SDS011;40101;53.002;6.488;2022-12-29T13:50:29;15.60;;;3.65;;
54191;SDS011;40101;53.002;6.488;2022-12-29T13:53:42;11.60;;;2.83;;
54191;SDS011;40101;53.002;6.488;2022-12-29T13:56:00;11.07;;;2.58;;
54191;SDS011;40101;53.002;6.488;2022-12-29T14:04:16;11.93;;;3.33;;
54191;SDS011;40101;53.002;6.488;2022-12-29T14:06:58;14.45;;;3.95;;
54191;SDS011;40101;53.002;6.488;2022-12-29T14:09:37;12.88;;;3.95;;
54191;SDS011;40101;53.002;6.488;2022-12-29T14:12:27;11.30;;;3.20;;
54191;SDS011;40101;53.002;6.488;2022-12-29T14:20:46;15.05;;;3.22;;
54191;SDS011;40101;53.002;6.488;2022-12-29T14:23:46;13.32;;;2.95;;
54191;SDS011;40101;53.002;6.488;2022-12-29T14:26:16;10.88;;;3.17;;
54191;SDS011;40101;53.002;6.488;2022-12-29T14:28:54;16.38;;;3.17;;
54191;SDS011;40101;53.002;6.488;2022-12-29T14:36:53;17.80;;;3.15;;
54191;SDS011;40101;53.002;6.488;2022-12-29T14:39:38;13.10;;;2.80;;
54191;SDS011;40101;53.002;6.488;2022-12-29T14:42:35;12.52;;;2.85;;
54191;SDS011;40101;53.002;6.488;2022-12-29T14:47:40;14.27;;;3.00;;
54191;SDS011;40101;53.002;6.488;2022-12-29T14:52:47;14.60;;;2.53;;
54191;SDS011;40101;53.002;6.488;2022-12-29T14:58:14;16.25;;;3.38;;
54191;SDS011;40101;53.002;6.488;2022-12-29T15:00:41;15.70;;;2.83;;
54191;SDS011;40101;53.002;6.488;2022-12-29T15:03:12;11.82;;;2.58;;
54191;SDS011;40101;53.002;6.488;2022-12-29T15:05:46;8.73;;;1.85;;
54191;SDS011;40101;53.002;6.488;2022-12-29T15:08:24;12.15;;;1.98;;
54191;SDS011;40101;53.002;6.488;2022-12-29T15:11:30;12.40;;;2.80;;
54191;SDS011;40101;53.002;6.488;2022-12-29T15:13:48;14.30;;;2.20;;
54191;SDS011;40101;53.002;6.488;2022-12-29T15:16:31;8.23;;;2.40;;
54191;SDS011;40101;53.002;6.488;2022-12-29T15:19:01;10.82;;;3.10;;
54191;SDS011;40101;53.002;6.488;2022-12-29T15:21:34;11.73;;;2.08;;
54191;SDS011;40101;53.002;6.488;2022-12-29T15:24:02;14.35;;;2.33;;
54191;SDS011;40101;53.002;6.488;2022-12-29T15:26:51;17.10;;;2.40;;
54191;SDS011;40101;53.002;6.488;2022-12-29T15:29:29;12.77;;;2.42;;
54191;SDS011;40101;53.002;6.488;2022-12-29T15:32:00;9.95;;;2.42;;
54191;SDS011;40101;53.002;6.488;2022-12-29T15:34:34;17.27;;;2.97;;
54191;SDS011;40101;53.002;6.488;2022-12-29T15:37:05;13.70;;;2.97;;
54191;SDS011;40101;53.002;6.488;2022-12-29T15:39:32;18.35;;;4.00;;
54191;SDS011;40101;53.002;6.488;2022-12-29T15:42:13;11.75;;;2.17;;
54191;SDS011;40101;53.002;6.488;2022-12-29T15:44:42;11.70;;;2.70;;
54191;SDS011;40101;53.002;6.488;2022-12-29T15:47:43;10.48;;;1.80;;
54191;SDS011;40101;53.002;6.488;2022-12-29T15:50:03;9.98;;;2.05;;
54191;SDS011;40101;53.002;6.488;2022-12-29T16:04:22;9.98;;;2.10;;
54191;SDS011;40101;53.002;6.488;2022-12-29T16:07:01;11.63;;;3.22;;
54191;SDS011;40101;53.002;6.488;2022-12-29T16:09:43;9.13;;;1.63;;
54191;SDS011;40101;53.002;6.488;2022-12-29T16:17:15;15.52;;;2.88;;
54191;SDS011;40101;53.002;6.488;2022-12-29T16:20:00;21.13;;;2.90;;
54191;SDS011;40101;53.002;6.488;2022-12-29T16:22:39;11.40;;;2.58;;
54191;SDS011;40101;53.002;6.488;2022-12-29T16:25:37;12.77;;;3.50;;
54191;SDS011;40101;53.002;6.488;2022-12-29T16:28:13;21.15;;;4.10;;
54191;SDS011;40101;53.002;6.488;2022-12-29T16:31:04;10.13;;;2.78;;
54191;SDS011;40101;53.002;6.488;2022-12-29T16:33:39;9.73;;;2.90;;
54191;SDS011;40101;53.002;6.488;2022-12-29T16:36:27;15.73;;;3.67;;
54191;SDS011;40101;53.002;6.488;2022-12-29T16:44:16;14.00;;;2.70;;
54191;SDS011;40101;53.002;6.488;2022-12-29T16:46:44;10.68;;;2.30;;
54191;SDS011;40101;53.002;6.488;2022-12-29T16:49:32;8.18;;;2.03;;
54191;SDS011;40101;53.002;6.488;2022-12-29T16:52:00;7.15;;;2.15;;
54191;SDS011;40101;53.002;6.488;2022-12-29T16:54:35;9.88;;;1.80;;
54191;SDS011;40101;53.002;6.488;2022-12-29T16:57:12;6.70;;;1.63;;
54191;SDS011;40101;53.002;6.488;2022-12-29T16:59:40;5.43;;;1.17;;
54191;SDS011;40101;53.002;6.488;2022-12-29T17:02:11;5.72;;;1.20;;
54191;SDS011;40101;53.002;6.488;2022-12-29T17:04:41;2.92;;;1.08;;
54191;SDS011;40101;53.002;6.488;2022-12-29T17:07:23;4.43;;;1.08;;
54191;SDS011;40101;53.002;6.488;2022-12-29T17:09:59;5.10;;;1.27;;
54191;SDS011;40101;53.002;6.488;2022-12-29T17:15:50;2.40;;;0.88;;
54191;SDS011;40101;53.002;6.488;2022-12-29T17:18:16;8.57;;;1.58;;
54191;SDS011;40101;53.002;6.488;2022-12-29T17:20:51;10.38;;;2.00;;
54191;SDS011;40101;53.002;6.488;2022-12-29T17:24:11;12.88;;;2.13;;
54191;SDS011;40101;53.002;6.488;2022-12-29T17:26:47;8.75;;;1.50;;
54191;SDS011;40101;53.002;6.488;2022-12-29T17:29:18;11.02;;;2.00;;
54191;SDS011;40101;53.002;6.488;2022-12-29T17:31:59;6.43;;;1.48;;
54191;SDS011;40101;53.002;6.488;2022-12-29T17:34:26;6.20;;;2.92;;
54191;SDS011;40101;53.002;6.488;2022-12-29T17:36:52;7.50;;;2.67;;
54191;SDS011;40101;53.002;6.488;2022-12-29T17:39:18;12.00;;;2.75;;
54191;SDS011;40101;53.002;6.488;2022-12-29T17:41:44;12.63;;;2.53;;
54191;SDS011;40101;53.002;6.488;2022-12-29T17:44:13;7.28;;;2.30;;
54191;SDS011;40101;53.002;6.488;2022-12-29T17:46:42;13.88;;;2.45;;
54191;SDS011;40101;53.002;6.488;2022-12-29T17:49:09;7.93;;;1.70;;
54191;SDS011;40101;53.002;6.488;2022-12-29T17:51:40;10.02;;;2.70;;